Time;durP1;ratioP1;P1;durP2;ratioP2;P2;SDS_P1;SDS_P2;PMS_P1;PMS_P2;Temp;Humidity;BMP_temperature;BMP_pressure;BME280_temperature;BME280_humidity;BME280_pressure;Samples;Min_cycle;Max_cycle;Signal;HPM_P1;HPM_P2
2022/09/26 00:02:17;;;;;;;25.50;17.00;;;;;;;7.37;73.03;99427.63;130733;1268;108706;-82
2022/09/26 00:05:22;;;;;;;22.30;15.30;;;;;;;7.38;72.73;99426.80;130693;1268;109032;-81
2022/09/26 00:08:28;;;;;;;25.20;15.60;;;;;;;7.37;72.68;99425.86;130525;1267;108670;-81
2022/09/26 00:11:35;;;;;;;22.80;15.50;;;;;;;7.35;72.92;99420.02;130755;1268;108959;-82
2022/09/26 00:14:40;;;;;;;25.00;16.20;;;;;;;7.33;72.79;99416.84;130721;1268;108696;-81
2022/09/26 00:17:45;;;;;;;25.30;16.00;;;;;;;7.31;73.02;99409.41;130565;1267;108737;-80
2022/09/26 00:20:51;;;;;;;24.90;15.20;;;;;;;7.27;72.95;99411.81;130813;1267;108758;-81
2022/09/26 00:23:58;;;;;;;24.50;15.80;;;;;;;7.22;73.00;99411.38;130636;1267;108572;-83
2022/09/26 00:27:03;;;;;;;22.80;15.00;;;;;;;7.18;72.80;99409.71;130728;1268;108645;-82
2022/09/26 00:30:10;;;;;;;22.20;14.60;;;;;;;7.13;73.25;99402.89;130641;1268;109025;-81
2022/09/26 00:33:16;;;;;;;25.60;14.40;;;;;;;7.10;73.12;99397.59;130673;1268;108701;-79
2022/09/26 00:36:21;;;;;;;22.10;14.60;;;;;;;7.09;73.16;99400.88;130670;1267;108574;-81
2022/09/26 00:39:27;;;;;;;22.20;14.80;;;;;;;7.11;73.28;99403.11;130652;1268;109017;-82
2022/09/26 00:42:32;;;;;;;21.80;14.40;;;;;;;7.13;73.21;99397.29;130795;1267;108493;-82
2022/09/26 00:45:38;;;;;;;23.00;14.20;;;;;;;7.14;73.10;99403.00;130573;1268;108888;-79
2022/09/26 00:48:45;;;;;;;21.40;14.20;;;;;;;7.14;73.08;99395.63;130577;1267;108624;-82
2022/09/26 00:51:57;;;;;;;21.10;14.10;;;;;;;7.12;73.20;99395.48;130693;1268;107145;-82
2022/09/26 00:55:05;;;;;;;19.80;13.80;;;;;;;7.08;73.26;99392.64;130649;1268;108689;-81
2022/09/26 00:58:13;;;;;;;22.10;15.10;;;;;;;7.07;73.28;99399.46;130496;1266;108739;-80
2022/09/26 01:01:19;;;;;;;22.20;14.30;;;;;;;7.03;73.25;99398.59;130646;1268;108670;-80
2022/09/26 01:04:27;;;;;;;22.50;14.20;;;;;;;7.00;73.07;99397.48;130493;1267;108845;-81
2022/09/26 01:07:33;;;;;;;19.50;13.40;;;;;;;6.96;73.50;99390.57;130625;1268;108829;-81
2022/09/26 01:10:39;;;;;;;20.20;12.40;;;;;;;6.92;73.10;99390.86;130495;1267;108702;-80
2022/09/26 01:13:46;;;;;;;18.40;12.10;;;;;;;6.89;73.44;99388.09;130618;1268;108649;-82
2022/09/26 01:16:53;;;;;;;21.80;13.30;;;;;;;6.90;73.48;99384.31;130607;1268;108942;-83
2022/09/26 01:20:09;;;;;;;19.70;13.50;;;;;;;6.91;73.41;99381.36;130711;1268;108646;-81
2022/09/26 01:23:49;;;;;;;20.80;14.10;;;;;;;6.94;73.78;99379.48;130561;1268;108622;-83
2022/09/26 01:27:16;;;;;;;18.80;13.60;;;;;;;6.98;73.75;99376.84;130539;1268;108782;-82
2022/09/26 01:30:25;;;;;;;19.10;14.40;;;;;;;6.98;73.61;99375.40;130526;1268;108638;-82
2022/09/26 01:33:58;;;;;;;18.10;12.90;;;;;;;6.97;73.57;99377.61;130738;1268;107597;-80
2022/09/26 01:37:09;;;;;;;19.40;13.40;;;;;;;6.93;73.58;99376.23;130607;1266;108840;-82
2022/09/26 01:40:23;;;;;;;21.50;13.90;;;;;;;6.89;73.90;99377.35;130575;1268;108585;-83
2022/09/26 01:43:35;;;;;;;19.40;13.10;;;;;;;6.85;74.09;99377.73;130642;1268;108695;-83
2022/09/26 01:46:46;;;;;;;18.20;12.10;;;;;;;6.83;74.17;99377.02;130520;1268;108976;-83
2022/09/26 01:49:59;;;;;;;18.60;11.90;;;;;;;6.83;74.17;99373.89;130563;1268;107657;-81
2022/09/26 01:53:11;;;;;;;16.60;11.50;;;;;;;6.85;74.28;99366.23;130620;1268;108845;-82
2022/09/26 01:56:22;;;;;;;18.90;13.40;;;;;;;6.87;74.36;99366.94;130649;1268;108736;-81
2022/09/26 01:59:32;;;;;;;18.40;12.70;;;;;;;6.89;74.43;99367.24;130613;1268;108957;-83
2022/09/26 02:02:43;;;;;;;21.30;13.70;;;;;;;6.93;74.35;99368.98;130606;1268;108843;-81
2022/09/26 02:05:54;;;;;;;18.10;13.30;;;;;;;6.93;74.49;99362.77;130616;1268;109900;-81
2022/09/26 02:09:07;;;;;;;19.00;13.50;;;;;;;6.94;74.69;99356.73;130589;1268;109065;-79
2022/09/26 02:12:19;;;;;;;19.30;14.10;;;;;;;6.95;74.81;99354.88;130739;1266;109066;-82
2022/09/26 02:15:27;;;;;;;19.50;14.30;;;;;;;6.95;74.79;99355.89;130659;1268;108807;-82
2022/09/26 02:18:40;;;;;;;18.20;13.10;;;;;;;6.91;74.82;99356.48;130512;1268;109182;-84
2022/09/26 02:21:46;;;;;;;19.50;13.00;;;;;;;6.90;75.01;99355.14;130409;1268;108682;-84
2022/09/26 02:24:52;;;;;;;16.80;12.20;;;;;;;6.93;75.49;99356.49;130472;1268;107533;-83
2022/09/26 02:27:59;;;;;;;18.60;13.70;;;;;;;6.96;75.25;99354.04;130799;1268;108710;-81
2022/09/26 02:31:08;;;;;;;21.10;14.70;;;;;;;6.97;75.37;99353.02;130497;1268;108960;-81
2022/09/26 02:34:13;;;;;;;19.60;14.30;;;;;;;7.00;75.73;99349.70;130547;1265;108594;-83
2022/09/26 02:37:20;;;;;;;19.00;14.10;;;;;;;7.04;75.49;99346.70;130366;1268;108464;-81
2022/09/26 02:40:35;;;;;;;19.50;14.20;;;;;;;7.03;75.63;99346.58;130506;1268;108857;-82
2022/09/26 02:43:50;;;;;;;22.20;15.40;;;;;;;7.06;75.61;99341.56;130613;1268;106899;-80
2022/09/26 02:47:20;;;;;;;20.80;14.50;;;;;;;7.14;76.56;99343.38;130522;1268;108898;-81
2022/09/26 02:50:43;;;;;;;22.10;15.60;;;;;;;7.23;76.77;99343.95;130298;1268;108705;-78
2022/09/26 02:54:14;;;;;;;19.80;14.10;;;;;;;7.35;76.94;99343.48;130247;1268;108757;-80
2022/09/26 02:57:33;;;;;;;22.00;16.00;;;;;;;7.49;77.39;99338.63;130297;1269;108707;-80
2022/09/26 03:00:51;;;;;;;19.80;15.70;;;;;;;7.64;78.10;99339.20;130382;1268;108715;-82
2022/09/26 03:04:03;;;;;;;20.00;16.00;;;;;;;7.77;77.84;99335.28;132011;1271;108940;-81
2022/09/26 03:07:13;;;;;;;17.40;13.40;;;;;;;7.85;78.29;99336.55;131085;1268;109398;-80
2022/09/26 03:10:20;;;;;;;17.80;13.40;;;;;;;7.91;78.27;99332.23;130689;1269;108749;-80
2022/09/26 03:13:27;;;;;;;16.00;12.40;;;;;;;7.97;78.27;99337.77;132050;1268;109125;-80
2022/09/26 03:16:37;;;;;;;15.90;12.90;;;;;;;8.06;78.35;99330.01;130254;1271;108736;-81
2022/09/26 03:19:49;;;;;;;18.00;14.10;;;;;;;8.13;78.66;99327.96;130254;1268;108634;-80
2022/09/26 03:22:54;;;;;;;16.20;14.00;;;;;;;8.17;78.26;99325.96;130467;1268;108963;-79
2022/09/26 03:26:07;;;;;;;18.30;14.60;;;;;;;8.21;78.41;99320.06;130122;1268;109099;-78
2022/09/26 03:29:14;;;;;;;16.20;12.30;;;;;;;8.23;78.55;99314.20;130206;1268;108938;-81
2022/09/26 03:32:20;;;;;;;15.50;12.40;;;;;;;8.24;78.73;99313.70;130365;1268;108972;-79
2022/09/26 03:35:27;;;;;;;16.40;13.20;;;;;;;8.27;78.63;99317.20;130538;1268;108681;-80
2022/09/26 03:38:33;;;;;;;18.50;14.30;;;;;;;8.31;78.76;99310.04;130417;1267;109688;-79
2022/09/26 03:41:44;;;;;;;17.90;14.30;;;;;;;8.35;78.77;99304.48;130549;1268;108947;-81
2022/09/26 03:44:59;;;;;;;15.50;13.40;;;;;;;8.37;78.69;99302.45;130596;1268;108625;-79
2022/09/26 03:48:07;;;;;;;17.30;14.10;;;;;;;8.40;78.55;99302.14;130632;1267;108527;-77
2022/09/26 03:51:14;;;;;;;19.10;15.20;;;;;;;8.41;78.91;99305.55;130479;1268;107224;-80
2022/09/26 03:54:19;;;;;;;16.80;12.80;;;;;;;8.41;78.97;99303.27;130673;1268;108783;-80
2022/09/26 03:57:26;;;;;;;15.40;11.90;;;;;;;8.39;78.85;99306.17;130490;1268;108793;-81
2022/09/26 04:00:37;;;;;;;16.80;13.50;;;;;;;8.38;79.04;99301.79;130703;1267;108747;-80
2022/09/26 04:03:45;;;;;;;18.50;14.60;;;;;;;8.41;79.00;99299.77;130679;1268;108765;-79
2022/09/26 04:06:50;;;;;;;16.60;13.90;;;;;;;8.43;78.96;99292.27;130533;1267;108678;-79
2022/09/26 04:09:56;;;;;;;17.90;14.60;;;;;;;8.45;79.13;99293.69;130464;1268;108840;-76
2022/09/26 04:13:02;;;;;;;18.60;14.80;;;;;;;8.46;79.19;99291.27;130504;1267;108652;-81
2022/09/26 04:16:08;;;;;;;18.70;13.70;;;;;;;8.47;79.15;99292.80;130463;1267;108679;-80
2022/09/26 04:19:14;;;;;;;16.30;12.90;;;;;;;8.47;79.42;99289.43;130516;1267;108675;-78
2022/09/26 04:22:19;;;;;;;18.30;14.00;;;;;;;8.50;79.35;99290.34;130453;1267;108511;-80
2022/09/26 04:25:26;;;;;;;18.40;14.40;;;;;;;8.54;79.41;99285.83;130735;1267;108722;-80
2022/09/26 04:28:34;;;;;;;17.60;14.20;;;;;;;8.56;79.59;99279.19;130398;1268;107656;-81
2022/09/26 04:31:41;;;;;;;17.60;14.60;;;;;;;8.58;79.59;99277.36;130574;1268;108637;-78
2022/09/26 04:34:50;;;;;;;18.60;14.80;;;;;;;8.61;79.48;99273.55;130612;1267;108715;-80
2022/09/26 04:37:55;;;;;;;18.90;13.80;;;;;;;8.60;79.63;99275.23;130318;1267;110014;-80
2022/09/26 04:41:04;;;;;;;17.80;12.60;;;;;;;8.60;79.80;99272.75;130422;1268;108060;-80
2022/09/26 04:44:11;;;;;;;20.70;15.00;;;;;;;8.61;79.88;99274.21;130434;1267;108676;-76
2022/09/26 04:47:17;;;;;;;18.70;14.30;;;;;;;8.66;80.09;99273.04;130843;1266;107797;-81
2022/09/26 04:50:43;;;;;;;19.80;15.30;;;;;;;8.71;79.95;99273.20;130661;1267;109230;-78
2022/09/26 04:53:50;;;;;;;18.20;14.50;;;;;;;8.75;79.93;99272.63;130611;1267;109030;-81
2022/09/26 04:57:00;;;;;;;19.00;15.20;;;;;;;8.76;80.17;99270.49;130717;1268;108909;-82
2022/09/26 05:00:11;;;;;;;18.10;12.90;;;;;;;8.77;80.07;99266.83;130760;1267;108853;-82
2022/09/26 05:03:18;;;;;;;17.40;12.90;;;;;;;8.78;80.18;99268.82;130514;1268;108310;-82
2022/09/26 05:06:23;;;;;;;16.80;13.20;;;;;;;8.83;80.26;99270.60;130421;1268;108501;-81
2022/09/26 05:09:29;;;;;;;19.50;14.40;;;;;;;8.91;80.38;99268.73;130589;1267;109812;-84
2022/09/26 05:12:44;;;;;;;17.50;13.90;;;;;;;8.98;80.16;99267.44;130715;1268;108704;-81
2022/09/26 05:15:52;;;;;;;18.30;14.60;;;;;;;9.03;80.29;99266.84;130659;1267;108783;-80
2022/09/26 05:19:00;;;;;;;19.90;14.60;;;;;;;9.09;80.29;99269.06;130602;1267;108800;-80
2022/09/26 05:22:06;;;;;;;19.00;13.70;;;;;;;9.10;80.28;99260.84;130358;1268;107251;-80
2022/09/26 05:28:34;;;;;;;17.70;14.10;;;;;;;9.19;80.36;99260.90;130623;1267;108948;-81
2022/09/26 05:31:40;;;;;;;17.50;14.50;;;;;;;9.27;80.39;99263.55;130606;1267;108673;-80
2022/09/26 05:34:47;;;;;;;17.90;14.40;;;;;;;9.35;80.48;99260.50;130569;1267;108065;-81
2022/09/26 05:38:01;;;;;;;18.40;14.70;;;;;;;9.43;80.42;99250.91;130664;1267;109000;-79
2022/09/26 05:41:07;;;;;;;16.60;13.60;;;;;;;9.50;80.38;99256.05;130446;1268;108728;-80
2022/09/26 05:44:13;;;;;;;18.10;13.50;;;;;;;9.57;80.44;99251.90;130450;1267;108794;-80
2022/09/26 05:47:20;;;;;;;17.00;12.50;;;;;;;9.66;80.57;99251.60;130352;1267;108534;-80
2022/09/26 05:50:26;;;;;;;17.10;14.50;;;;;;;9.77;80.73;99256.95;130735;1267;109009;-80
2022/09/26 05:53:32;;;;;;;18.30;14.30;;;;;;;9.90;80.68;99250.66;130291;1266;108806;-80
2022/09/26 05:56:38;;;;;;;16.50;14.00;;;;;;;10.07;80.48;99250.88;130453;1267;108883;-80
2022/09/26 05:59:52;;;;;;;17.10;13.80;;;;;;;10.25;80.45;99241.89;130677;1267;107137;-81
2022/09/26 06:03:02;;;;;;;17.80;14.60;;;;;;;10.45;80.44;99241.63;130655;1267;108837;-82
2022/09/26 06:06:16;;;;;;;17.00;13.20;;;;;;;10.66;80.68;99246.15;130407;1268;108652;-80
2022/09/26 06:09:21;;;;;;;16.40;12.20;;;;;;;10.85;80.68;99248.56;130591;1268;109808;-81
2022/09/26 06:12:49;;;;;;;16.40;13.50;;;;;;;11.08;80.42;99248.98;130623;1267;108725;-81
2022/09/26 06:15:55;;;;;;;17.00;13.80;;;;;;;11.25;80.32;99254.02;130624;1267;108954;-81
2022/09/26 06:19:01;;;;;;;17.80;14.40;;;;;;;11.34;80.29;99248.80;130639;1268;108994;-81
2022/09/26 06:22:06;;;;;;;18.80;14.30;;;;;;;11.37;80.43;99244.91;130497;1267;108917;-78
2022/09/26 06:25:12;;;;;;;19.80;14.80;;;;;;;11.40;80.14;99248.08;130355;1268;108464;-81
2022/09/26 06:28:18;;;;;;;19.60;14.60;;;;;;;11.39;80.27;99247.34;130537;1267;108927;-80
2022/09/26 06:31:24;;;;;;;17.00;13.30;;;;;;;11.36;80.33;99243.08;130496;1267;108717;-80
2022/09/26 06:34:50;;;;;;;17.00;12.10;;;;;;;11.34;80.32;99240.73;130456;1267;108740;-79
2022/09/26 06:38:14;;;;;;;17.70;13.40;;;;;;;11.36;80.28;99244.08;130505;1268;108510;-80
2022/09/26 06:41:20;;;;;;;18.00;13.90;;;;;;;11.37;80.68;99252.86;130504;1267;108758;-79
2022/09/26 06:44:25;;;;;;;18.60;14.80;;;;;;;11.38;80.75;99247.11;130427;1268;108122;-79
2022/09/26 06:48:03;;;;;;;18.60;14.60;;;;;;;11.40;80.60;99247.58;130512;1267;108664;-79
2022/09/26 06:51:28;;;;;;;18.40;14.60;;;;;;;11.40;80.54;99245.45;130415;1268;108775;-80
2022/09/26 06:54:33;;;;;;;20.20;14.30;;;;;;;11.38;80.45;99250.52;130281;1268;108742;-80
2022/09/26 06:57:42;;;;;;;16.40;12.70;;;;;;;11.38;80.82;99254.39;130405;1267;108684;-79
2022/09/26 07:00:47;;;;;;;20.70;15.30;;;;;;;11.43;80.90;99253.50;130502;1267;108704;-79
2022/09/26 07:04:17;;;;;;;20.50;15.90;;;;;;;11.51;80.88;99250.87;130444;1268;108771;-80
2022/09/26 07:07:45;;;;;;;22.90;17.40;;;;;;;11.59;81.12;99250.40;130319;1268;109920;-80
2022/09/26 07:11:02;;;;;;;20.90;17.10;;;;;;;11.69;81.02;99245.48;130428;1268;109241;-79
2022/09/26 07:14:08;;;;;;;22.50;17.90;;;;;;;11.77;81.17;99248.48;130212;1268;108698;-80
2022/09/26 07:17:15;;;;;;;21.50;16.20;;;;;;;11.84;80.99;99247.48;130493;1268;108654;-80
2022/09/26 07:20:46;;;;;;;23.10;15.70;;;;;;;11.93;80.96;99250.51;130373;1267;108744;-80
2022/09/26 07:24:26;;;;;;;21.70;16.10;;;;;;;12.06;81.27;99245.77;130259;1270;108863;-80
2022/09/26 07:27:32;;;;;;;23.20;18.00;;;;;;;12.17;81.12;99248.45;130393;1268;108685;-80
2022/09/26 07:30:39;;;;;;;26.60;19.70;;;;;;;12.27;81.30;99244.41;130542;1268;108729;-80
2022/09/26 07:33:51;;;;;;;26.50;19.90;;;;;;;12.35;81.34;99250.17;130479;1268;108804;-80
2022/09/26 07:36:58;;;;;;;25.00;19.80;;;;;;;12.41;81.20;99249.99;130398;1268;109201;-80
2022/09/26 07:40:04;;;;;;;19.70;15.90;;;;;;;12.47;81.29;99250.33;130396;1268;108959;-80
2022/09/26 07:43:10;;;;;;;22.80;16.50;;;;;;;12.53;81.40;99246.70;130521;1267;108699;-81
2022/09/26 07:53:15;;;;;;;23.80;19.00;;;;;;;12.93;81.47;99242.05;130443;1267;108727;-80
2022/09/26 07:56:40;;;;;;;25.00;19.50;;;;;;;13.07;81.34;99242.10;130618;1267;108994;-80
2022/09/26 08:00:07;;;;;;;26.00;19.80;;;;;;;13.17;81.20;99242.14;130588;1266;108821;-82
2022/09/26 08:03:27;;;;;;;;;;;;;;;13.24;81.16;99242.81;130509;1268;108690;-81
2022/09/26 08:06:35;;;;;;;23.30;17.40;;;;;;;13.32;81.29;99245.95;130491;1267;108669;-82
2022/09/26 08:09:41;;;;;;;24.20;19.00;;;;;;;13.38;81.17;99246.16;130368;1267;108742;-81
2022/09/26 08:13:05;;;;;;;21.60;18.30;;;;;;;13.46;81.14;99243.98;130552;1267;106923;-81
2022/09/26 08:16:21;;;;;;;26.10;19.40;;;;;;;13.56;81.25;99240.58;130495;1267;108951;-80
2022/09/26 08:19:27;;;;;;;26.30;20.20;;;;;;;13.63;81.32;99232.20;130533;1267;108725;-82
2022/09/26 08:22:33;;;;;;;28.40;21.50;;;;;;;13.67;81.06;99227.52;130440;1267;108692;-80
2022/09/26 08:25:38;;;;;;;26.70;21.30;;;;;;;13.71;81.13;99229.53;130620;1267;108894;-80
2022/09/26 08:29:10;;;;;;;24.50;18.70;;;;;;;13.76;81.15;99220.85;130711;1267;108671;-80
2022/09/26 08:32:16;;;;;;;27.70;18.20;;;;;;;13.83;81.27;99220.17;130584;1267;109176;-80
2022/09/26 08:35:22;;;;;;;24.90;19.60;;;;;;;13.91;81.30;99215.80;130726;1267;108642;-80
2022/09/26 08:38:53;;;;;;;21.50;18.40;;;;;;;14.06;80.96;99218.05;130571;1267;108902;-81
2022/09/26 08:42:39;;;;;;;25.50;19.50;;;;;;;14.21;80.97;99218.79;130501;1268;109109;-81
2022/09/26 08:50:11;;;;;;;23.90;20.60;;;;;;;14.43;81.15;99203.19;130530;1267;109592;-80
2022/09/26 08:53:20;;;;;;;29.20;23.00;;;;;;;14.48;81.11;99202.12;130432;1268;107672;-81
2022/09/26 08:56:35;;;;;;;28.30;22.00;;;;;;;14.53;81.03;99199.45;130546;1267;108937;-81
2022/09/26 08:59:43;;;;;;;28.90;22.90;;;;;;;14.64;81.27;99193.91;130362;1268;108974;-81
2022/09/26 09:03:03;;;;;;;27.60;23.90;;;;;;;14.77;81.37;99193.98;130433;1268;107727;-82
2022/09/26 09:06:13;;;;;;;31.00;23.50;;;;;;;14.89;81.43;99191.11;130619;1267;108674;-81
2022/09/26 09:09:21;;;;;;;24.90;22.20;;;;;;;14.96;81.43;99186.06;130463;1268;108707;-81
2022/09/26 09:12:52;;;;;;;23.70;20.30;;;;;;;15.01;81.29;99186.02;130786;1267;108694;-81
2022/09/26 09:16:39;;;;;;;16.70;15.00;;;;;;;15.03;81.34;99187.66;130535;1267;108740;-81
2022/09/26 09:20:12;;;;;;;;;;;;;;;15.07;81.26;99186.34;130506;1267;108721;-83
2022/09/26 09:23:55;;;;;;;17.60;14.50;;;;;;;15.13;80.99;99182.81;130334;1267;108938;-81
2022/09/26 09:27:12;;;;;;;16.80;14.40;;;;;;;15.18;80.93;99181.33;130466;1267;108965;-81
2022/09/26 09:30:22;;;;;;;21.80;17.60;;;;;;;15.21;80.69;99175.73;130539;1267;108595;-81
2022/09/26 09:33:38;;;;;;;22.90;20.00;;;;;;;15.22;80.46;99172.35;130578;1267;108684;-81
2022/09/26 09:37:03;;;;;;;20.10;16.90;;;;;;;15.23;80.66;99176.15;130536;1267;108857;-80
2022/09/26 09:40:33;;;;;;;;;;;;;;;15.28;80.87;99176.52;130588;1267;109124;-81
2022/09/26 09:43:42;;;;;;;17.40;14.90;;;;;;;15.35;80.84;99173.80;130484;1267;108790;-81
2022/09/26 09:46:49;;;;;;;18.20;15.30;;;;;;;15.44;80.92;99170.21;130564;1268;108890;-83
2022/09/26 09:49:58;;;;;;;16.70;14.90;;;;;;;15.56;80.60;99167.70;130538;1268;108815;-83
2022/09/26 09:53:14;;;;;;;15.80;14.20;;;;;;;15.66;80.40;99171.14;130537;1267;108961;-83
2022/09/26 09:56:35;;;;;;;18.10;15.40;;;;;;;15.74;80.30;99166.44;130518;1267;108745;-80
2022/09/26 09:59:56;;;;;;;18.50;16.20;;;;;;;15.78;80.00;99163.42;130448;1268;108047;-81
2022/09/26 10:03:11;;;;;;;16.10;14.10;;;;;;;15.79;79.95;99162.34;130505;1267;108664;-83
2022/09/26 10:06:16;;;;;;;17.80;15.30;;;;;;;15.79;79.71;99158.00;130643;1267;108726;-80
2022/09/26 10:09:27;;;;;;;18.10;14.70;;;;;;;15.80;79.78;99155.14;130490;1267;108984;-83
2022/09/26 10:12:53;;;;;;;18.50;15.70;;;;;;;15.81;79.85;99155.84;130525;1268;108867;-81
2022/09/26 10:16:09;;;;;;;18.00;15.60;;;;;;;15.87;79.67;99158.54;130403;1270;108743;-81
2022/09/26 10:19:36;;;;;;;18.10;15.10;;;;;;;15.96;79.75;99153.02;130448;1268;109048;-81
2022/09/26 10:22:45;;;;;;;18.40;15.20;;;;;;;16.04;79.58;99149.02;130466;1268;108723;-83
2022/09/26 10:26:02;;;;;;;15.90;14.20;;;;;;;16.11;79.59;99150.05;130470;1268;108686;-81
2022/09/26 10:29:23;;;;;;;16.30;14.30;;;;;;;16.17;79.56;99148.16;130503;1268;108721;-83
2022/09/26 10:32:29;;;;;;;16.70;14.80;;;;;;;16.20;79.53;99151.36;130499;1267;109670;-82
2022/09/26 10:35:58;;;;;;;17.30;15.20;;;;;;;16.25;79.49;99149.21;130440;1268;109202;-83
2022/09/26 10:42:40;;;;;;;15.90;14.00;;;;;;;16.35;79.45;99145.77;130510;1268;108246;-82
2022/09/26 10:45:59;;;;;;;16.20;13.90;;;;;;;16.43;79.18;99142.92;130562;1267;109407;-84
2022/09/26 10:49:45;;;;;;;15.60;13.70;;;;;;;16.48;79.01;99139.31;130215;1268;108704;-82
2022/09/26 10:53:16;;;;;;;15.90;13.40;;;;;;;16.54;79.02;99139.54;130471;1267;107530;-81
2022/09/26 10:56:25;;;;;;;;;;;;;;;16.55;78.72;99136.81;130352;1268;275821;-82
2022/09/26 10:59:39;;;;;;;13.60;11.10;;;;;;;16.56;78.31;99133.84;130394;1267;109703;-82
2022/09/26 11:02:50;;;;;;;14.30;11.10;;;;;;;16.62;78.33;99129.89;130484;1268;109694;-82
2022/09/26 11:05:58;;;;;;;;;;;;;;;16.70;78.18;99128.54;130460;1268;108673;-82
2022/09/26 11:09:06;;;;;;;13.10;11.00;;;;;;;16.79;78.28;99132.27;130478;1267;108910;-82
2022/09/26 11:12:25;;;;;;;14.00;11.60;;;;;;;16.88;78.11;99129.70;130564;1268;108891;-82
2022/09/26 11:15:32;;;;;;;19.30;15.60;;;;;;;16.97;77.96;99129.56;130591;1267;109206;-83
2022/09/26 11:18:48;;;;;;;17.70;15.50;;;;;;;17.01;78.03;99123.05;130526;1267;108575;-82
2022/09/26 11:22:00;;;;;;;13.80;11.80;;;;;;;17.03;77.67;99119.67;130379;1268;106509;-82
2022/09/26 11:25:15;;;;;;;14.00;12.00;;;;;;;17.06;77.29;99119.44;130558;1267;108696;-82
2022/09/26 11:28:29;;;;;;;14.00;11.80;;;;;;;17.04;77.53;99117.71;130441;1268;108605;-82
2022/09/26 11:31:58;;;;;;;13.70;11.90;;;;;;;17.02;77.18;99123.91;130527;1267;108668;-82
2022/09/26 11:35:34;;;;;;;15.50;12.50;;;;;;;17.02;77.22;99120.63;130560;1268;108552;-82
2022/09/26 11:38:49;;;;;;;12.70;11.30;;;;;;;17.01;77.02;99115.42;130539;1268;107734;-82
2022/09/26 11:42:12;;;;;;;14.00;12.10;;;;;;;17.02;77.07;99115.92;130516;1268;108820;-82
2022/09/26 11:45:29;;;;;;;14.00;12.50;;;;;;;17.08;77.06;99111.69;130399;1268;108490;-82
2022/09/26 11:49:12;;;;;;;14.10;11.90;;;;;;;17.19;76.81;99102.54;130603;1267;108924;-82
2022/09/26 11:52:51;;;;;;;12.30;10.50;;;;;;;17.31;76.54;99107.30;130636;1267;109244;-82
2022/09/26 11:56:14;;;;;;;16.90;12.30;;;;;;;17.44;76.38;99099.96;130585;1267;108677;-82
2022/09/26 11:59:46;;;;;;;11.70;10.50;;;;;;;17.60;76.14;99096.70;130518;1267;108708;-82
2022/09/26 12:03:15;;;;;;;11.80;10.60;;;;;;;17.79;76.08;99094.35;130573;1268;108918;-81
2022/09/26 12:06:32;;;;;;;10.60;9.50;;;;;;;17.95;75.23;99092.27;130538;1267;107794;-82
2022/09/26 12:09:53;;;;;;;9.90;8.90;;;;;;;18.05;75.16;99085.73;130598;1267;107519;-82
2022/09/26 12:13:17;;;;;;;11.70;9.70;;;;;;;18.17;75.22;99081.70;130616;1268;109046;-81
2022/09/26 12:16:31;;;;;;;11.30;10.20;;;;;;;18.26;75.01;99079.97;130586;1266;108616;-82
2022/09/26 12:19:46;;;;;;;10.60;9.50;;;;;;;18.32;75.04;99077.70;130541;1268;108940;-84
2022/09/26 12:22:58;;;;;;;11.20;9.70;;;;;;;18.39;74.96;99079.06;130514;1267;108724;-82
2022/09/26 12:26:13;;;;;;;11.30;9.60;;;;;;;18.44;74.48;99071.61;130638;1268;108705;-84
2022/09/26 12:29:29;;;;;;;10.70;8.90;;;;;;;18.49;73.72;99071.46;130496;1267;108639;-84
2022/09/26 12:32:47;;;;;;;10.50;9.50;;;;;;;18.53;73.90;99070.10;130551;1267;109046;-82
2022/09/26 12:35:59;;;;;;;9.80;8.80;;;;;;;18.62;73.78;99069.27;130634;1267;108768;-81
2022/09/26 12:39:45;;;;;;;9.70;8.70;;;;;;;18.69;73.30;99062.88;130615;1267;108181;-83
2022/09/26 12:43:22;;;;;;;10.70;9.20;;;;;;;18.80;73.26;99060.40;130624;1267;108808;-82
2022/09/26 12:46:42;;;;;;;9.60;8.40;;;;;;;18.92;72.90;99052.89;130487;1267;108150;-82
2022/09/26 12:50:00;;;;;;;9.80;8.80;;;;;;;18.99;72.79;99055.83;130582;1267;108999;-82
2022/09/26 12:53:38;;;;;;;10.40;9.30;;;;;;;18.99;72.04;99055.98;130553;1267;107650;-82
2022/09/26 12:56:53;;;;;;;9.80;8.80;;;;;;;18.94;71.84;99058.25;130393;1267;108769;-82
2022/09/26 13:00:11;;;;;;;9.30;8.00;;;;;;;18.87;71.62;99057.92;130645;1267;108664;-82
2022/09/26 13:03:51;;;;;;;9.90;8.30;;;;;;;18.80;71.65;99053.16;130720;1267;108796;-83
2022/09/26 13:07:11;;;;;;;8.80;8.00;;;;;;;18.73;71.58;99057.15;130512;1267;107722;-82
2022/09/26 13:10:28;;;;;;;8.40;7.60;;;;;;;18.65;70.88;99054.01;130542;1267;108823;-81
2022/09/26 13:13:47;;;;;;;8.90;7.60;;;;;;;18.60;70.64;99047.11;130597;1267;108665;-82
2022/09/26 13:17:08;;;;;;;9.30;8.20;;;;;;;18.59;70.86;99045.73;130592;1267;108962;-82
2022/09/26 13:20:20;;;;;;;13.50;11.70;;;;;;;18.67;70.77;99038.10;130835;1267;108668;-82
2022/09/26 13:23:31;;;;;;;11.60;10.40;;;;;;;18.76;70.82;99036.52;130739;1267;109550;-81
2022/09/26 13:26:42;;;;;;;11.00;9.80;;;;;;;18.80;70.67;99039.13;130648;1267;108727;-81
2022/09/26 13:30:01;;;;;;;11.90;10.00;;;;;;;18.81;70.63;99038.02;130866;1267;108757;-83
2022/09/26 13:33:13;;;;;;;12.10;10.90;;;;;;;18.81;70.38;99030.02;130833;1267;108689;-83
2022/09/26 13:36:21;;;;;;;12.70;11.40;;;;;;;18.79;70.38;99029.40;130731;1267;108644;-83
2022/09/26 13:39:34;;;;;;;12.30;11.00;;;;;;;18.74;70.17;99027.83;130851;1266;108763;-82
2022/09/26 13:42:45;;;;;;;13.60;11.40;;;;;;;18.67;70.21;99022.48;130821;1265;108666;-83
2022/09/26 13:46:04;;;;;;;12.40;11.00;;;;;;;18.62;70.37;99021.34;130915;1267;108825;-82
2022/09/26 13:49:32;;;;;;;12.10;10.70;;;;;;;18.58;70.65;99020.92;130697;1267;108209;-81
2022/09/26 13:52:51;;;;;;;12.50;11.20;;;;;;;18.47;70.47;99018.25;130845;1267;108840;-81
2022/09/26 13:56:32;;;;;;;14.40;10.20;;;;;;;18.41;70.28;99017.36;130924;1267;108710;-81
2022/09/26 13:59:53;;;;;;;12.40;11.10;;;;;;;18.37;70.55;99014.89;130790;1267;108523;-81
2022/09/26 14:03:33;;;;;;;12.40;11.10;;;;;;;18.30;70.48;99011.91;130800;1267;108652;-80
2022/09/26 14:06:59;;;;;;;11.60;10.40;;;;;;;18.14;70.09;99015.48;130521;1268;107617;-80
2022/09/26 14:10:20;;;;;;;14.00;10.90;;;;;;;17.95;70.09;99013.18;130746;1268;108746;-81
2022/09/26 14:13:37;;;;;;;10.80;9.80;;;;;;;17.74;70.20;99017.69;130658;1268;108750;-81
2022/09/26 14:16:43;;;;;;;12.10;10.10;;;;;;;17.53;70.40;99017.02;130606;1268;108591;-81
2022/09/26 14:19:54;;;;;;;12.00;9.10;;;;;;;17.37;70.58;99018.71;131155;1267;108805;-81
2022/09/26 14:23:00;;;;;;;10.50;8.90;;;;;;;17.25;70.74;99019.89;130536;1267;108668;-83
2022/09/26 14:26:26;;;;;;;10.10;9.00;;;;;;;17.20;70.78;99020.17;130879;1267;108690;-81
2022/09/26 14:29:44;;;;;;;10.00;8.90;;;;;;;17.18;70.90;99015.21;130721;1267;108634;-80
2022/09/26 14:32:53;;;;;;;10.20;8.80;;;;;;;17.20;70.89;99011.08;130673;1267;110501;-82
2022/09/26 14:36:24;;;;;;;9.70;8.70;;;;;;;17.21;70.85;99014.55;130602;1268;108630;-80
2022/09/26 14:39:35;;;;;;;10.20;9.10;;;;;;;17.20;70.90;99015.98;130785;1267;108440;-81
2022/09/26 14:42:50;;;;;;;10.60;9.60;;;;;;;17.16;71.03;99018.35;130654;1267;108636;-81
2022/09/26 14:46:04;;;;;;;11.00;10.00;;;;;;;17.12;71.16;99019.48;130690;1267;107738;-80
2022/09/26 14:49:19;;;;;;;10.90;9.80;;;;;;;17.06;71.30;99021.08;130659;1267;110876;-79
2022/09/26 14:52:26;;;;;;;33.50;26.00;;;;;;;17.03;71.36;99019.09;131060;1268;107781;-82
2022/09/26 14:55:32;;;;;;;14.20;12.50;;;;;;;16.99;71.59;99013.59;130902;1267;107653;-79
2022/09/26 14:58:50;;;;;;;44.80;31.30;;;;;;;16.95;71.61;99014.05;130560;1268;108750;-86